sensor_id;sensor_type;location;lat;lon;timestamp;pressure;altitude;pressure_sealevel;temperature;humidity
6528;BME280;64597;42.664;23.256;2022-12-29T19:40:20;95334.69;;;22.54;48.28
6528;BME280;64597;42.664;23.256;2022-12-29T19:42:47;95340.66;;;22.51;49.14
6528;BME280;64597;42.664;23.256;2022-12-29T19:45:13;95344.72;;;22.48;49.34
6528;BME280;64597;42.664;23.256;2022-12-29T20:02:24;95330.50;;;25.21;39.55
6528;BME280;64597;42.664;23.256;2022-12-29T20:04:51;95329.34;;;23.88;36.61
6528;BME280;64597;42.664;23.256;2022-12-29T20:07:18;95339.50;;;21.00;32.05
6528;BME280;64597;42.664;23.256;2022-12-29T20:09:44;95338.34;;;18.74;34.93
6528;BME280;64597;42.664;23.256;2022-12-29T20:12:10;95345.47;;;16.98;37.27
6528;BME280;64597;42.664;23.256;2022-12-29T20:14:39;95351.41;;;15.60;39.74
6528;BME280;64597;42.664;23.256;2022-12-29T20:17:07;95358.28;;;14.56;41.82
6528;BME280;64597;42.664;23.256;2022-12-29T20:19:34;95375.78;;;13.61;44.01
6528;BME280;64597;42.664;23.256;2022-12-29T20:22:00;95381.66;;;12.64;46.65
6528;BME280;64597;42.664;23.256;2022-12-29T20:24:27;95378.28;;;11.68;49.32
6528;BME280;64597;42.664;23.256;2022-12-29T20:26:53;95395.06;;;11.13;50.29
6528;BME280;64597;42.664;23.256;2022-12-29T20:29:19;95385.38;;;10.57;52.22
6528;BME280;64597;42.664;23.256;2022-12-29T20:31:45;95384.38;;;10.21;53.57
6528;BME280;64597;42.664;23.256;2022-12-29T20:34:10;95386.66;;;9.60;56.36
6528;BME280;64597;42.664;23.256;2022-12-29T20:36:39;95378.63;;;12.08;83.03
6528;BME280;64597;42.664;23.256;2022-12-29T20:39:08;95373.97;;;14.30;62.40
6528;BME280;64597;42.664;23.256;2022-12-29T20:41:34;95367.47;;;15.32;53.74
6528;BME280;64597;42.664;23.256;2022-12-29T20:43:59;95373.25;;;16.05;48.60
6528;BME280;64597;42.664;23.256;2022-12-29T20:46:26;95384.97;;;15.44;47.01
6528;BME280;64597;42.664;23.256;2022-12-29T20:48:52;95370.41;;;14.24;45.68
6528;BME280;64597;42.664;23.256;2022-12-29T20:51:18;95384.66;;;13.20;46.96
6528;BME280;64597;42.664;23.256;2022-12-29T20:53:45;95319.69;;;11.89;48.83
6528;BME280;64597;42.664;23.256;2022-12-29T20:56:22;95390.69;;;11.43;50.53
6528;BME280;64597;42.664;23.256;2022-12-29T20:58:48;95393.19;;;10.95;51.92
6528;BME280;64597;42.664;23.256;2022-12-29T21:01:17;95398.28;;;10.65;53.27
6528;BME280;64597;42.664;23.256;2022-12-29T21:03:43;95383.03;;;10.12;54.61
6528;BME280;64597;42.664;23.256;2022-12-29T21:06:09;95366.00;;;9.57;56.01
6528;BME280;64597;42.664;23.256;2022-12-29T21:08:35;95398.28;;;9.26;57.47
6528;BME280;64597;42.664;23.256;2022-12-29T21:11:02;95399.13;;;9.13;58.70
6528;BME280;64597;42.664;23.256;2022-12-29T21:13:28;95394.47;;;8.96;58.89
6528;BME280;64597;42.664;23.256;2022-12-29T21:15:56;95392.88;;;8.95;58.81
6528;BME280;64597;42.664;23.256;2022-12-29T21:18:22;95397.13;;;8.76;60.09
6528;BME280;64597;42.664;23.256;2022-12-29T21:21:06;95399.75;;;8.63;60.95
6528;BME280;64597;42.664;23.256;2022-12-29T21:23:32;95398.53;;;8.40;61.01
6528;BME280;64597;42.664;23.256;2022-12-29T21:25:57;95389.13;;;8.11;62.75
6528;BME280;64597;42.664;23.256;2022-12-29T21:28:24;95397.63;;;8.13;62.73
6528;BME280;64597;42.664;23.256;2022-12-29T21:30:50;95403.84;;;7.99;63.26
6528;BME280;64597;42.664;23.256;2022-12-29T21:33:17;95403.25;;;8.03;63.90
6528;BME280;64597;42.664;23.256;2022-12-29T21:35:44;95385.00;;;7.76;64.01
6528;BME280;64597;42.664;23.256;2022-12-29T21:38:10;95391.09;;;7.96;63.98
6528;BME280;64597;42.664;23.256;2022-12-29T21:40:36;95389.88;;;7.92;63.88
6528;BME280;64597;42.664;23.256;2022-12-29T21:43:03;95386.63;;;7.83;64.85
6528;BME280;64597;42.664;23.256;2022-12-29T21:45:29;95387.41;;;7.77;64.92
6528;BME280;64597;42.664;23.256;2022-12-29T21:50:44;95372.69;;;7.76;65.07
6528;BME280;64597;42.664;23.256;2022-12-29T21:53:31;95352.22;;;7.59;64.65
6528;BME280;64597;42.664;23.256;2022-12-29T21:56:05;95368.41;;;7.69;65.54
6528;BME280;64597;42.664;23.256;2022-12-29T21:58:30;95374.44;;;7.56;65.58
6528;BME280;64597;42.664;23.256;2022-12-29T22:01:14;95378.88;;;7.62;66.05
6528;BME280;64597;42.664;23.256;2022-12-29T22:03:58;95377.84;;;7.57;66.14
6528;BME280;64597;42.664;23.256;2022-12-29T22:06:42;95379.53;;;7.30;67.17
6528;BME280;64597;42.664;23.256;2022-12-29T22:09:26;95376.28;;;7.28;67.12
6528;BME280;64597;42.664;23.256;2022-12-29T22:12:11;95362.53;;;7.19;67.01
6528;BME280;64597;42.664;23.256;2022-12-29T22:14:55;95382.31;;;7.22;67.28
6528;BME280;64597;42.664;23.256;2022-12-29T22:17:21;95342.31;;;7.07;67.59
6528;BME280;64597;42.664;23.256;2022-12-29T22:19:46;95373.31;;;7.37;67.44
6528;BME280;64597;42.664;23.256;2022-12-29T22:22:12;95378.38;;;7.39;66.76
6528;BME280;64597;42.664;23.256;2022-12-29T22:24:37;95346.28;;;7.37;66.91
6528;BME280;64597;42.664;23.256;2022-12-29T22:27:03;95372.78;;;7.55;67.02
6528;BME280;64597;42.664;23.256;2022-12-29T22:29:28;95359.81;;;7.40;67.21
6528;BME280;64597;42.664;23.256;2022-12-29T22:31:54;95375.00;;;7.52;66.99
6528;BME280;64597;42.664;23.256;2022-12-29T22:34:19;95372.38;;;7.52;66.94
6528;BME280;64597;42.664;23.256;2022-12-29T22:36:44;95373.38;;;7.50;66.74
6528;BME280;64597;42.664;23.256;2022-12-29T22:39:10;95368.72;;;7.46;67.11
6528;BME280;64597;42.664;23.256;2022-12-29T22:41:35;95364.88;;;7.42;66.83
6528;BME280;64597;42.664;23.256;2022-12-29T22:44:01;95371.56;;;7.51;66.94
6528;BME280;64597;42.664;23.256;2022-12-29T22:46:26;95366.84;;;7.40;67.80
6528;BME280;64597;42.664;23.256;2022-12-29T22:48:52;95369.53;;;7.46;67.25
6528;BME280;64597;42.664;23.256;2022-12-29T22:51:17;95373.19;;;7.59;66.92
6528;BME280;64597;42.664;23.256;2022-12-29T22:53:43;95380.09;;;7.60;66.93
6528;BME280;64597;42.664;23.256;2022-12-29T22:56:12;95372.25;;;8.40;87.20
6528;BME280;64597;42.664;23.256;2022-12-29T22:58:42;95366.69;;;11.87;89.51
6528;BME280;64597;42.664;23.256;2022-12-29T23:01:09;95348.81;;;13.41;66.76
6528;BME280;64597;42.664;23.256;2022-12-29T23:03:35;95361.22;;;12.83;73.89
6528;BME280;64597;42.664;23.256;2022-12-29T23:06:03;95360.03;;;11.96;69.94
6528;BME280;64597;42.664;23.256;2022-12-29T23:08:30;95357.25;;;11.19;64.18
6528;BME280;64597;42.664;23.256;2022-12-29T23:10:56;95358.19;;;10.57;61.17
6528;BME280;64597;42.664;23.256;2022-12-29T23:13:21;95353.06;;;10.00;60.33
6528;BME280;64597;42.664;23.256;2022-12-29T23:15:47;95361.06;;;9.80;60.05
6528;BME280;64597;42.664;23.256;2022-12-29T23:18:13;95346.19;;;9.54;59.54
6528;BME280;64597;42.664;23.256;2022-12-29T23:20:40;95356.78;;;9.35;60.84
6528;BME280;64597;42.664;23.256;2022-12-29T23:23:06;95360.28;;;9.09;61.09
6528;BME280;64597;42.664;23.256;2022-12-29T23:25:34;95359.69;;;9.00;61.15
6528;BME280;64597;42.664;23.256;2022-12-29T23:28:00;95367.41;;;8.82;61.76
6528;BME280;64597;42.664;23.256;2022-12-29T23:30:25;95362.75;;;8.52;63.02
6528;BME280;64597;42.664;23.256;2022-12-29T23:32:50;95364.75;;;8.43;63.58
6528;BME280;64597;42.664;23.256;2022-12-29T23:35:16;95367.19;;;8.38;63.91
6528;BME280;64597;42.664;23.256;2022-12-29T23:37:41;95354.66;;;8.34;63.38
6528;BME280;64597;42.664;23.256;2022-12-29T23:40:07;95357.47;;;8.25;63.94
6528;BME280;64597;42.664;23.256;2022-12-29T23:42:32;95363.50;;;8.13;64.55
6528;BME280;64597;42.664;23.256;2022-12-29T23:44:58;95363.06;;;8.03;64.96
6528;BME280;64597;42.664;23.256;2022-12-29T23:47:23;95363.84;;;8.03;64.85
6528;BME280;64597;42.664;23.256;2022-12-29T23:49:49;95351.34;;;7.99;65.53
6528;BME280;64597;42.664;23.256;2022-12-29T23:52:14;95353.09;;;7.85;66.10
6528;BME280;64597;42.664;23.256;2022-12-29T23:54:39;95355.91;;;7.77;66.54
6528;BME280;64597;42.664;23.256;2022-12-29T23:57:05;95348.75;;;7.52;67.03
6528;BME280;64597;42.664;23.256;2022-12-29T23:59:30;95353.84;;;7.60;66.84
